Tennerton, West Virginia
Current Conditions -  °F | °C
As of 4:35 AM on Friday 24 Oct 2014 (Local Time) from KW22 Reporting Station
Moderate Fog Moderate Fog  
Wind Chill: 39°   Ceiling: 2600
Heat Index: 39°   Visibility: 0.25mi
Dew Point: 39°   Wind: 0mph
Humidity: 100%   Direction: NA
Pressure: 30.09"   Gusts: NA
Location:  38.998°N, 80.2065°W
Report Text: KW22 240835Z AUTO 00000KT 1/4SM FG OVC026 04/04 A3009 RMK AO2
Loading
Personal Weather Stations






























Interactive Weather Map
Tropical Storm Tracking
New forecast layout! Learn more

10-Day Weather Forecast

Advertisements
Track Severe Weather on mobile